createdAt,value
2023-05-13T00:00:35.950Z,0.91
2023-05-13T00:01:35.980Z,0.92
2023-05-13T00:02:36.082Z,0.68
2023-05-13T00:03:36.146Z,0.65
2023-05-13T00:04:36.077Z,0.98
2023-05-13T00:05:36.128Z,0.61
2023-05-13T00:06:36.319Z,0.76
2023-05-13T00:07:36.214Z,0.72
2023-05-13T00:08:36.212Z,0.72
2023-05-13T00:09:36.248Z,0.66
2023-05-13T00:10:36.300Z,0.97
2023-05-13T00:11:36.335Z,0.78
2023-05-13T00:12:36.405Z,0.65
2023-05-13T00:13:36.403Z,0.84
2023-05-13T00:14:36.424Z,0.88
2023-05-13T00:15:36.473Z,0.84
2023-05-13T00:16:36.575Z,0.59
2023-05-13T00:17:36.580Z,0.49
2023-05-13T00:18:36.623Z,0.78
2023-05-13T00:19:36.620Z,0.98
2023-05-13T00:20:36.646Z,0.70
2023-05-13T00:21:36.671Z,0.85
2023-05-13T00:22:36.730Z,0.59
2023-05-13T00:23:36.739Z,0.71
2023-05-13T00:24:36.780Z,0.81
2023-05-13T00:25:36.828Z,0.50
2023-05-13T00:26:36.838Z,0.64
2023-05-13T00:27:36.909Z,0.54
2023-05-13T00:28:36.974Z,0.71
2023-05-13T00:29:36.969Z,0.86
2023-05-13T00:30:36.981Z,0.76
2023-05-13T00:31:37.118Z,0.59
2023-05-13T00:32:37.106Z,0.53
2023-05-13T00:33:37.118Z,0.82
2023-05-13T00:34:37.140Z,0.61
2023-05-13T00:35:37.194Z,0.53
2023-05-13T00:36:37.217Z,0.73
2023-05-13T00:37:37.255Z,0.57
2023-05-13T00:38:37.287Z,0.77
2023-05-13T00:39:37.313Z,0.71
2023-05-13T00:40:37.364Z,0.88
2023-05-13T00:41:37.407Z,0.78
2023-05-13T00:42:37.443Z,0.95
2023-05-13T00:43:37.519Z,0.75
2023-05-13T00:44:37.542Z,0.74
2023-05-13T00:45:37.609Z,0.62
2023-05-13T00:46:37.622Z,0.76
2023-05-13T00:47:37.664Z,0.85
2023-05-13T00:48:37.726Z,0.79
2023-05-13T00:49:37.756Z,0.80
2023-05-13T00:50:37.787Z,0.57
2023-05-13T00:51:37.841Z,0.63
2023-05-13T00:52:37.854Z,0.79
2023-05-13T00:53:37.894Z,0.53
2023-05-13T00:54:37.931Z,0.61
2023-05-13T00:55:37.970Z,0.80
2023-05-13T00:56:37.998Z,0.82
2023-05-13T00:57:38.068Z,0.54
2023-05-13T00:58:38.068Z,0.58
2023-05-13T00:59:38.104Z,1.00
2023-05-13T01:00:38.174Z,0.75
2023-05-13T01:01:38.272Z,0.70
2023-05-13T01:02:38.322Z,0.66
2023-05-13T01:03:38.370Z,0.52
2023-05-13T01:04:38.338Z,0.70
2023-05-13T01:05:38.369Z,0.71
2023-05-13T01:06:38.424Z,0.80
2023-05-13T01:07:38.464Z,0.73
2023-05-13T01:08:38.490Z,0.65
2023-05-13T01:09:38.542Z,0.50
2023-05-13T01:10:38.562Z,0.89
2023-05-13T01:11:38.605Z,0.65
2023-05-13T01:12:38.660Z,0.68
2023-05-13T01:13:38.709Z,0.60
2023-05-13T01:14:38.734Z,0.51
2023-05-13T01:15:38.752Z,0.76
2023-05-13T01:16:38.829Z,0.61
2023-05-13T01:17:38.928Z,0.63
2023-05-13T01:18:38.903Z,0.53
2023-05-13T01:19:38.918Z,0.59
2023-05-13T01:20:38.981Z,0.88
2023-05-13T01:21:39.022Z,0.54
2023-05-13T01:22:39.079Z,0.50
2023-05-13T01:23:39.109Z,0.54
2023-05-13T01:24:39.206Z,0.56
2023-05-13T01:25:39.187Z,0.79
2023-05-13T01:26:39.219Z,0.51
2023-05-13T01:27:39.345Z,0.77
2023-05-13T01:28:39.299Z,0.57
2023-05-13T01:29:39.353Z,0.73
2023-05-13T01:30:39.383Z,0.56
2023-05-13T01:31:39.456Z,0.76
2023-05-13T01:32:39.504Z,0.64
2023-05-13T01:33:39.540Z,0.43
2023-05-13T01:34:39.562Z,0.75
2023-05-13T01:35:39.603Z,0.67
2023-05-13T01:36:39.628Z,0.79
2023-05-13T01:37:39.686Z,0.55
2023-05-13T01:38:39.722Z,0.76
2023-05-13T01:39:39.775Z,0.57
2023-05-13T01:40:40.185Z,0.47
2023-05-13T01:41:39.863Z,0.55
2023-05-13T01:42:39.942Z,0.48
2023-05-13T01:43:39.935Z,0.75
2023-05-13T01:44:39.996Z,0.37
2023-05-13T01:45:40.036Z,0.67
2023-05-13T01:46:40.085Z,0.55
2023-05-13T01:47:40.123Z,0.49
2023-05-13T01:48:40.167Z,0.58
2023-05-13T01:49:40.187Z,0.51
2023-05-13T01:50:40.230Z,0.57
2023-05-13T01:51:40.279Z,0.49
2023-05-13T01:52:40.342Z,0.50
2023-05-13T01:53:40.389Z,0.53
2023-05-13T01:54:40.405Z,0.46
2023-05-13T01:55:40.467Z,0.41
2023-05-13T01:56:40.500Z,0.47
2023-05-13T01:57:40.532Z,0.52
2023-05-13T01:58:40.590Z,0.54
2023-05-13T01:59:40.612Z,0.38
2023-05-13T02:00:40.653Z,0.51
2023-05-13T02:01:40.778Z,0.63
2023-05-13T02:02:40.868Z,0.76
2023-05-13T02:03:40.943Z,0.66
2023-05-13T02:04:40.827Z,0.62
2023-05-13T02:05:40.869Z,0.44
2023-05-13T02:06:40.924Z,0.57
2023-05-13T02:07:40.943Z,0.79
2023-05-13T02:08:41.004Z,0.46
2023-05-13T02:09:41.032Z,0.55
2023-05-13T02:10:41.070Z,0.49
2023-05-13T02:11:41.104Z,0.67
2023-05-13T02:12:41.169Z,0.64
2023-05-13T02:13:41.206Z,0.33
2023-05-13T02:14:41.237Z,0.53
2023-05-13T02:15:41.293Z,0.63
2023-05-13T02:16:41.340Z,0.52
2023-05-13T02:17:41.454Z,0.55
2023-05-13T02:18:41.487Z,0.68
2023-05-13T02:19:41.477Z,0.60
2023-05-13T02:20:41.515Z,0.81
2023-05-13T02:21:41.565Z,0.67
2023-05-13T02:22:41.631Z,0.58
2023-05-13T02:23:41.678Z,0.65
2023-05-13T02:24:41.711Z,0.68
2023-05-13T02:25:41.763Z,0.61
2023-05-13T02:26:41.786Z,0.55
2023-05-13T02:27:41.832Z,0.78
2023-05-13T02:28:41.895Z,0.56
2023-05-13T02:29:41.949Z,0.76
2023-05-13T02:30:41.983Z,0.69
2023-05-13T02:31:42.051Z,0.76
2023-05-13T02:32:42.090Z,0.57
2023-05-13T02:33:42.125Z,0.56
2023-05-13T02:34:42.183Z,0.58
2023-05-13T02:35:42.205Z,0.51
2023-05-13T02:36:42.260Z,0.43
2023-05-13T02:37:42.309Z,0.48
2023-05-13T02:38:42.362Z,0.62
2023-05-13T02:39:42.424Z,0.61
2023-05-13T02:40:42.466Z,0.44
2023-05-13T02:41:42.511Z,0.65
2023-05-13T02:42:42.556Z,0.70
2023-05-13T02:43:42.593Z,0.64
2023-05-13T02:44:42.668Z,0.51
2023-05-13T02:45:42.736Z,0.83
2023-05-13T02:46:42.759Z,0.70
2023-05-13T02:47:42.833Z,0.82
2023-05-13T02:48:42.839Z,0.60
2023-05-13T02:49:42.888Z,0.60
2023-05-13T02:50:42.966Z,0.60
2023-05-13T02:51:43.007Z,0.54
2023-05-13T02:52:43.061Z,0.59
2023-05-13T02:53:43.118Z,0.69
2023-05-13T02:54:43.179Z,0.74
2023-05-13T02:55:43.176Z,0.69
2023-05-13T02:56:43.223Z,0.91
2023-05-13T02:57:43.281Z,0.73
2023-05-13T02:58:43.330Z,0.83
2023-05-13T02:59:43.405Z,0.74
2023-05-13T03:00:43.452Z,0.58
2023-05-13T03:01:43.588Z,0.75
2023-05-13T03:02:43.649Z,0.81
2023-05-13T03:03:43.634Z,0.55
2023-05-13T03:04:43.640Z,0.82
2023-05-13T03:05:43.668Z,0.64
2023-05-13T03:06:43.733Z,0.68
2023-05-13T03:07:43.767Z,0.72
2023-05-13T03:08:43.811Z,0.70
2023-05-13T03:09:43.862Z,0.53
2023-05-13T03:10:43.896Z,0.79
2023-05-13T03:11:43.946Z,0.67
2023-05-13T03:12:44.001Z,0.53
2023-05-13T03:13:44.049Z,0.59
2023-05-13T03:14:44.081Z,0.57
2023-05-13T03:15:44.679Z,0.57
2023-05-13T03:16:44.178Z,0.53
2023-05-13T03:17:44.272Z,1.01
2023-05-13T03:18:44.325Z,0.74
2023-05-13T03:19:44.345Z,0.55
2023-05-13T03:20:44.387Z,0.63
2023-05-13T03:21:44.437Z,0.56
2023-05-13T03:22:44.466Z,0.95
2023-05-13T03:23:44.541Z,0.91
2023-05-13T03:24:44.572Z,0.64
2023-05-13T03:25:44.614Z,0.59
2023-05-13T03:26:44.673Z,0.65
2023-05-13T03:27:44.746Z,0.74
2023-05-13T03:28:44.779Z,0.64
2023-05-13T03:29:44.815Z,0.72
2023-05-13T03:30:44.861Z,0.66
2023-05-13T03:31:44.987Z,0.69
2023-05-13T03:32:45.001Z,0.82
2023-05-13T03:33:45.008Z,0.57
2023-05-13T03:34:45.057Z,0.60
2023-05-13T03:35:45.092Z,0.65
2023-05-13T03:36:45.143Z,0.59
2023-05-13T03:37:45.204Z,0.73
2023-05-13T03:38:45.264Z,0.42
2023-05-13T03:39:45.270Z,0.72
2023-05-13T03:40:45.340Z,0.51
2023-05-13T03:41:45.389Z,0.54
2023-05-13T03:42:45.412Z,0.47
2023-05-13T03:43:45.468Z,0.57
2023-05-13T03:44:45.532Z,0.49
2023-05-13T03:45:45.576Z,0.56
2023-05-13T03:46:45.665Z,0.45
2023-05-13T03:47:45.730Z,0.53
2023-05-13T03:48:45.758Z,0.55
2023-05-13T03:49:45.781Z,0.62
2023-05-13T03:50:45.832Z,0.60
2023-05-13T03:51:45.867Z,0.62
2023-05-13T03:52:47.309Z,0.59
2023-05-13T03:53:45.981Z,0.85
2023-05-13T03:54:46.039Z,0.44
2023-05-13T03:55:46.085Z,0.62
2023-05-13T03:56:46.136Z,0.47
2023-05-13T03:57:46.181Z,0.52
2023-05-13T03:58:46.236Z,0.37
2023-05-13T03:59:46.302Z,0.45
2023-05-13T04:00:46.337Z,0.67
2023-05-13T04:01:46.398Z,0.67
2023-05-13T04:02:46.509Z,0.47
2023-05-13T04:03:46.475Z,0.42
2023-05-13T04:04:46.584Z,0.48
2023-05-13T04:05:46.608Z,0.56
2023-05-13T04:06:46.634Z,0.62
2023-05-13T04:07:46.696Z,0.50
2023-05-13T04:08:46.722Z,0.62
2023-05-13T04:09:46.805Z,0.67
2023-05-13T04:10:46.828Z,0.50
2023-05-13T04:11:46.885Z,0.65
2023-05-13T04:12:46.921Z,0.61
2023-05-13T04:13:46.981Z,0.61
2023-05-13T04:14:47.027Z,0.51
2023-05-13T04:15:47.086Z,0.41
2023-05-13T04:16:47.165Z,0.55
2023-05-13T04:17:47.222Z,0.78
2023-05-13T04:18:47.332Z,0.63
2023-05-13T04:19:47.287Z,0.40
2023-05-13T04:20:47.342Z,0.57
2023-05-13T04:21:47.417Z,0.59
2023-05-13T04:22:47.438Z,0.60
2023-05-13T04:23:47.477Z,0.89
2023-05-13T04:24:47.547Z,0.87
2023-05-13T04:25:47.591Z,0.82
2023-05-13T04:26:47.641Z,0.72
2023-05-13T04:27:47.676Z,0.76
2023-05-13T04:28:47.717Z,1.02
2023-05-13T04:29:47.769Z,1.04
2023-05-13T04:30:47.821Z,0.80
2023-05-13T04:31:47.891Z,1.19
2023-05-13T04:32:47.933Z,1.67
2023-05-13T04:33:47.979Z,1.29
2023-05-13T04:34:48.015Z,2.54
2023-05-13T04:35:48.076Z,2.60
2023-05-13T04:36:48.118Z,2.68
2023-05-13T04:37:48.161Z,2.74
2023-05-13T04:38:48.215Z,2.55
2023-05-13T04:39:48.298Z,2.77
2023-05-13T04:40:48.337Z,2.80
2023-05-13T04:41:48.361Z,3.16
2023-05-13T04:42:48.429Z,3.50
2023-05-13T04:43:48.514Z,3.38
2023-05-13T04:44:48.515Z,3.60
2023-05-13T04:45:48.577Z,3.64
2023-05-13T04:46:48.703Z,2.88
2023-05-13T04:47:48.725Z,2.97
2023-05-13T04:48:48.785Z,3.06
2023-05-13T04:49:48.769Z,2.43
2023-05-13T04:50:48.865Z,2.42
2023-05-13T04:51:48.914Z,2.39
2023-05-13T04:52:48.963Z,2.12
2023-05-13T04:53:48.998Z,2.82
2023-05-13T04:54:49.031Z,1.74
2023-05-13T04:55:49.117Z,1.99
2023-05-13T04:56:49.184Z,2.12
2023-05-13T04:57:49.206Z,2.15
2023-05-13T04:58:49.243Z,2.50
2023-05-13T04:59:49.262Z,1.73
2023-05-13T05:00:49.329Z,1.89
2023-05-13T05:01:49.444Z,1.52
2023-05-13T05:02:49.450Z,1.90
2023-05-13T05:03:49.492Z,1.64
2023-05-13T05:04:49.625Z,1.66
2023-05-13T05:05:49.571Z,1.69
2023-05-13T05:06:49.623Z,1.99
2023-05-13T05:07:49.660Z,1.68
2023-05-13T05:08:49.717Z,1.47
2023-05-13T05:09:49.769Z,1.72
2023-05-13T05:10:49.809Z,1.25
2023-05-13T05:11:49.876Z,1.34
2023-05-13T05:12:49.916Z,1.70
2023-05-13T05:13:49.963Z,1.41
2023-05-13T05:14:50.004Z,1.81
2023-05-13T05:15:50.053Z,1.64
2023-05-13T05:16:50.137Z,1.90
2023-05-13T05:17:50.297Z,1.41
2023-05-13T05:18:50.267Z,1.60
2023-05-13T05:19:50.258Z,1.43
2023-05-13T05:20:50.320Z,1.41
2023-05-13T05:21:50.369Z,1.20
2023-05-13T05:22:50.385Z,1.48
2023-05-13T05:23:50.436Z,1.38
2023-05-13T05:24:50.521Z,1.46
2023-05-13T05:25:57.818Z,1.10
2023-05-13T05:26:51.541Z,1.17
2023-05-13T05:27:50.545Z,1.13
2023-05-13T05:28:50.535Z,1.22
2023-05-13T05:29:50.511Z,1.18
2023-05-13T05:30:50.512Z,1.38
2023-05-13T05:31:50.589Z,1.34
2023-05-13T05:32:50.549Z,1.03
2023-05-13T05:33:50.497Z,1.05
2023-05-13T05:34:50.490Z,1.04
2023-05-13T05:35:50.519Z,1.03
2023-05-13T05:36:50.505Z,1.28
2023-05-13T05:37:50.563Z,1.13
2023-05-13T05:38:50.603Z,1.24
2023-05-13T05:39:50.663Z,1.35
2023-05-13T05:40:50.716Z,1.06
2023-05-13T05:41:50.751Z,1.02
2023-05-13T05:42:50.805Z,1.14
2023-05-13T05:43:50.846Z,1.23
2023-05-13T05:44:50.909Z,1.01
2023-05-13T05:45:50.972Z,1.23
2023-05-13T05:46:51.011Z,0.99
2023-05-13T05:47:51.130Z,0.98
2023-05-13T05:48:51.075Z,1.01
2023-05-13T05:49:51.121Z,0.99
2023-05-13T05:50:51.162Z,0.85
2023-05-13T05:51:51.204Z,0.99
2023-05-13T05:52:51.266Z,0.82
2023-05-13T05:53:51.311Z,0.89
2023-05-13T05:54:51.354Z,1.00
2023-05-13T05:55:52.960Z,0.93
2023-05-13T05:56:51.505Z,0.89
2023-05-13T05:57:51.515Z,0.59
2023-05-13T05:58:51.564Z,0.92
2023-05-13T05:59:51.599Z,0.77
2023-05-13T06:00:51.653Z,1.00
2023-05-13T06:01:51.706Z,0.79
2023-05-13T06:02:51.818Z,1.04
2023-05-13T06:03:53.987Z,0.91
2023-05-13T06:04:51.874Z,1.12
2023-05-13T06:05:51.773Z,0.88
2023-05-13T06:06:51.833Z,0.96
2023-05-13T06:07:51.785Z,0.96
2023-05-13T06:08:51.779Z,0.99
2023-05-13T06:09:51.759Z,1.01
2023-05-13T06:10:51.763Z,1.04
2023-05-13T06:11:51.774Z,1.01
2023-05-13T06:12:51.758Z,1.01
2023-05-13T06:13:51.724Z,1.05
2023-05-13T06:14:51.726Z,0.94
2023-05-13T06:15:51.780Z,0.94
2023-05-13T06:16:53.011Z,0.94
2023-05-13T06:17:51.727Z,0.87
2023-05-13T06:18:51.717Z,0.75
2023-05-13T06:19:51.693Z,0.87
2023-05-13T06:20:51.689Z,0.79
2023-05-13T06:21:51.670Z,0.95
2023-05-13T06:22:51.667Z,0.59
2023-05-13T06:23:51.662Z,0.71
2023-05-13T06:24:51.651Z,1.37
2023-05-13T06:25:51.649Z,0.79
2023-05-13T06:26:51.640Z,0.98
2023-05-13T06:27:51.648Z,1.01
2023-05-13T06:28:51.636Z,0.86
2023-05-13T06:29:51.695Z,0.87
2023-05-13T06:30:51.744Z,0.56
2023-05-13T06:31:51.816Z,0.81
2023-05-13T06:33:00.907Z,0.94
2023-05-13T06:33:52.797Z,0.59
2023-05-13T06:34:53.526Z,0.83
2023-05-13T06:35:51.768Z,0.95
2023-05-13T06:36:51.740Z,0.86
2023-05-13T06:37:51.742Z,0.86
2023-05-13T06:38:51.743Z,0.75
2023-05-13T06:39:51.735Z,0.73
2023-05-13T06:40:51.732Z,1.09
2023-05-13T06:41:51.767Z,0.69
2023-05-13T06:42:51.702Z,0.68
2023-05-13T06:43:51.720Z,0.66
2023-05-13T06:44:51.697Z,0.79
2023-05-13T06:45:51.704Z,0.79
2023-05-13T06:46:51.807Z,0.72
2023-05-13T06:47:51.776Z,0.73
2023-05-13T06:48:51.753Z,0.48
2023-05-13T06:49:51.663Z,0.63
2023-05-13T06:50:51.658Z,0.50
2023-05-13T06:51:51.673Z,0.64
2023-05-13T06:52:51.665Z,0.45
2023-05-13T06:53:51.643Z,0.97
2023-05-13T06:54:51.639Z,0.67
2023-05-13T06:55:51.613Z,0.71
2023-05-13T06:56:51.663Z,0.68
2023-05-13T06:57:51.622Z,0.65
2023-05-13T06:58:51.596Z,0.46
2023-05-13T06:59:51.608Z,0.57
2023-05-13T07:00:51.616Z,0.62
2023-05-13T07:01:51.605Z,0.51
2023-05-13T07:02:51.700Z,0.97
2023-05-13T07:03:51.604Z,0.53
2023-05-13T07:04:51.573Z,0.81
2023-05-13T07:05:51.553Z,0.84
2023-05-13T07:06:51.536Z,0.73
2023-05-13T07:07:51.551Z,0.95
2023-05-13T07:08:51.545Z,0.85
2023-05-13T07:09:51.549Z,0.83
2023-05-13T07:10:51.523Z,0.69
2023-05-13T07:11:51.502Z,0.93
2023-05-13T07:12:51.497Z,0.51
2023-05-13T07:13:51.510Z,0.88
2023-05-13T07:14:51.485Z,0.54
2023-05-13T07:15:51.490Z,0.83
2023-05-13T07:16:51.500Z,0.82
2023-05-13T07:17:51.590Z,0.74
2023-05-13T07:18:51.498Z,0.99
2023-05-13T07:19:51.496Z,0.65
2023-05-13T07:20:51.561Z,0.94
2023-05-13T07:21:51.568Z,0.84
2023-05-13T07:22:51.615Z,0.74
2023-05-13T07:23:51.650Z,0.66
2023-05-13T07:24:51.696Z,0.96
2023-05-13T07:25:51.748Z,0.71
2023-05-13T07:26:51.789Z,0.77
2023-05-13T07:27:51.817Z,0.78
2023-05-13T07:28:51.836Z,0.45
2023-05-13T07:29:51.865Z,0.50
2023-05-13T07:30:51.939Z,0.64
2023-05-13T07:31:51.948Z,0.55
2023-05-13T07:32:53.867Z,0.56
2023-05-13T07:33:52.021Z,0.56
2023-05-13T07:34:52.053Z,0.50
2023-05-13T07:35:52.067Z,0.76
2023-05-13T07:36:52.102Z,0.64
2023-05-13T07:37:52.165Z,0.72
2023-05-13T07:38:52.165Z,0.60
2023-05-13T07:39:52.240Z,0.61
2023-05-13T07:40:52.239Z,0.72
2023-05-13T07:41:52.251Z,0.85
2023-05-13T07:42:52.287Z,0.72
2023-05-13T07:43:52.325Z,0.67
2023-05-13T07:44:52.372Z,0.66
2023-05-13T07:45:52.411Z,0.97
2023-05-13T07:46:52.454Z,0.87
2023-05-13T07:47:52.485Z,0.62
2023-05-13T07:48:52.494Z,0.76
2023-05-13T07:49:52.552Z,0.64
2023-05-13T07:50:52.569Z,0.59
2023-05-13T07:51:52.633Z,0.96
2023-05-13T07:52:52.633Z,0.69
2023-05-13T07:53:52.675Z,0.77
2023-05-13T07:54:52.677Z,0.40
2023-05-13T07:55:52.730Z,0.52
2023-05-13T07:56:52.750Z,0.53
2023-05-13T07:57:52.792Z,0.63
2023-05-13T07:58:52.837Z,0.57
2023-05-13T07:59:52.898Z,0.59
2023-05-13T08:00:52.941Z,0.74
2023-05-13T08:01:52.952Z,0.71
2023-05-13T08:02:53.180Z,0.53
2023-05-13T08:03:53.149Z,0.52
2023-05-13T08:04:53.163Z,0.73
2023-05-13T08:05:53.098Z,0.44
2023-05-13T08:06:53.119Z,0.79
2023-05-13T08:07:53.134Z,0.42
2023-05-13T08:08:53.189Z,0.54
2023-05-13T08:09:53.266Z,0.57
2023-05-13T08:10:53.240Z,0.55
2023-05-13T08:11:53.312Z,0.43
2023-05-13T08:12:53.324Z,0.69
2023-05-13T08:13:53.350Z,0.68
2023-05-13T08:14:53.370Z,0.52
2023-05-13T08:15:53.406Z,0.76
2023-05-13T08:16:53.487Z,0.48
2023-05-13T08:17:53.580Z,0.90
2023-05-13T08:18:53.599Z,0.58
2023-05-13T08:19:53.511Z,0.68
2023-05-13T08:20:53.547Z,0.68
2023-05-13T08:21:53.577Z,0.59
2023-05-13T08:22:53.584Z,0.56
2023-05-13T08:23:53.632Z,0.49
2023-05-13T08:24:53.644Z,0.75
2023-05-13T08:25:53.666Z,0.66
2023-05-13T08:26:53.702Z,0.56
2023-05-13T08:27:53.737Z,0.78
2023-05-13T08:28:54.978Z,0.35
2023-05-13T08:29:53.807Z,0.77
2023-05-13T08:30:53.801Z,0.61
2023-05-13T08:31:53.895Z,0.46
2023-05-13T08:32:53.932Z,0.71
2023-05-13T08:33:53.863Z,0.56
2023-05-13T08:34:53.892Z,0.58
2023-05-13T08:35:53.913Z,0.57
2023-05-13T08:36:53.947Z,0.50
2023-05-13T08:37:53.969Z,0.54
2023-05-13T08:38:53.983Z,0.64
2023-05-13T08:39:54.006Z,0.56
2023-05-13T08:40:54.031Z,0.58
2023-05-13T08:41:54.056Z,0.54
2023-05-13T08:42:54.057Z,0.71
2023-05-13T08:43:54.116Z,0.77
2023-05-13T08:44:54.140Z,0.87
2023-05-13T08:45:54.201Z,0.63
2023-05-13T08:46:54.175Z,1.00
2023-05-13T08:47:54.209Z,0.76
2023-05-13T08:48:54.184Z,0.74
2023-05-13T08:49:54.248Z,1.15
2023-05-13T08:50:54.225Z,0.82
2023-05-13T08:51:54.230Z,0.87
2023-05-13T08:52:54.278Z,1.00
2023-05-13T08:53:54.304Z,0.79
2023-05-13T08:54:54.328Z,0.85
2023-05-13T08:55:54.317Z,0.76
2023-05-13T08:56:54.351Z,0.88
2023-05-13T08:57:54.371Z,0.69
2023-05-13T08:58:54.358Z,0.88
2023-05-13T08:59:54.396Z,0.56
2023-05-13T09:00:54.454Z,0.79
2023-05-13T09:01:54.419Z,0.79
2023-05-13T09:02:54.401Z,0.73
2023-05-13T09:03:54.475Z,1.05
2023-05-13T09:04:54.599Z,0.82
2023-05-13T09:05:54.584Z,0.73
2023-05-13T09:06:54.594Z,0.57
2023-05-13T09:07:54.624Z,0.73
2023-05-13T09:08:54.623Z,0.63
2023-05-13T09:09:54.626Z,0.64
2023-05-13T09:10:54.678Z,0.65
2023-05-13T09:11:54.724Z,0.59
2023-05-13T09:12:54.692Z,0.84
2023-05-13T09:13:54.704Z,0.83
2023-05-13T09:14:54.713Z,0.41
2023-05-13T09:15:54.875Z,0.94
2023-05-13T09:16:54.901Z,0.86
2023-05-13T09:17:55.032Z,0.58
2023-05-13T09:18:55.239Z,0.98
2023-05-13T09:19:55.162Z,0.80
2023-05-13T09:20:55.126Z,0.62
2023-05-13T09:21:55.121Z,0.64
2023-05-13T09:22:55.105Z,0.80
2023-05-13T09:23:55.129Z,0.70
2023-05-13T09:24:55.157Z,0.81
2023-05-13T09:25:55.140Z,0.68
2023-05-13T09:26:55.138Z,0.97
2023-05-13T09:27:55.134Z,0.75
2023-05-13T09:28:55.212Z,0.54
2023-05-13T09:29:55.220Z,0.70
2023-05-13T09:30:55.311Z,0.56
2023-05-13T09:31:55.199Z,0.46
2023-05-13T09:32:55.240Z,0.81
2023-05-13T09:33:55.208Z,0.79
2023-05-13T09:34:55.292Z,0.61
2023-05-13T09:35:55.286Z,0.57
2023-05-13T09:36:55.298Z,0.56
2023-05-13T09:37:55.292Z,0.42
2023-05-13T09:38:55.299Z,0.62
2023-05-13T09:39:55.320Z,0.52
2023-05-13T09:40:55.387Z,0.47
2023-05-13T09:41:55.429Z,0.52
2023-05-13T09:42:55.428Z,0.87
2023-05-13T09:43:55.439Z,0.57
2023-05-13T09:44:55.462Z,0.61
2023-05-13T09:45:55.444Z,0.49
2023-05-13T09:46:55.524Z,0.49
2023-05-13T09:47:55.481Z,0.59
2023-05-13T09:48:57.050Z,0.81
2023-05-13T09:49:55.551Z,0.62
2023-05-13T09:50:55.561Z,0.34
2023-05-13T09:51:55.538Z,0.43
2023-05-13T09:52:55.567Z,0.45
2023-05-13T09:53:55.573Z,0.36
2023-05-13T09:54:55.602Z,0.43
2023-05-13T09:55:55.714Z,0.38
2023-05-13T09:56:55.711Z,0.36
2023-05-13T09:57:55.722Z,0.31
2023-05-13T09:58:55.781Z,0.35
2023-05-13T09:59:55.764Z,0.39
2023-05-13T10:00:55.911Z,0.30
2023-05-13T10:01:55.825Z,0.30
2023-05-13T10:02:55.937Z,0.41
2023-05-13T10:03:55.913Z,0.25
2023-05-13T10:04:55.955Z,0.43
2023-05-13T10:05:56.032Z,0.30
2023-05-13T10:06:56.097Z,0.55
2023-05-13T10:07:56.150Z,0.44
2023-05-13T10:08:56.164Z,0.39
2023-05-13T10:09:56.235Z,0.46
2023-05-13T10:10:56.290Z,0.45
2023-05-13T10:11:56.327Z,0.40
2023-05-13T10:12:56.387Z,0.31
2023-05-13T10:13:56.421Z,0.33
2023-05-13T10:14:56.508Z,0.30
2023-05-13T10:15:56.523Z,0.44
2023-05-13T10:16:56.623Z,0.28
2023-05-13T10:17:56.706Z,0.55
2023-05-13T10:18:56.704Z,0.34
2023-05-13T10:19:56.762Z,0.47
2023-05-13T10:20:56.806Z,0.50
2023-05-13T10:21:56.843Z,0.51
2023-05-13T10:22:56.926Z,0.27
2023-05-13T10:23:56.976Z,0.64
2023-05-13T10:24:57.019Z,0.35
2023-05-13T10:25:57.075Z,0.60
2023-05-13T10:26:57.133Z,0.39
2023-05-13T10:27:57.181Z,0.49
2023-05-13T10:28:57.221Z,0.45
2023-05-13T10:29:57.283Z,0.25
2023-05-13T10:30:57.328Z,0.27
2023-05-13T10:31:57.388Z,0.42
2023-05-13T10:32:57.438Z,0.35
2023-05-13T10:33:57.452Z,0.46
2023-05-13T10:34:57.505Z,0.21
2023-05-13T10:35:57.556Z,0.30
2023-05-13T10:36:57.606Z,0.43
2023-05-13T10:37:57.629Z,0.43
2023-05-13T10:38:57.668Z,0.35
2023-05-13T10:39:57.717Z,0.50
2023-05-13T10:40:57.785Z,0.19
2023-05-13T10:41:57.801Z,0.29
2023-05-13T10:42:57.853Z,0.31
2023-05-13T10:43:57.885Z,0.38
2023-05-13T10:44:57.926Z,0.31
2023-05-13T10:45:58.027Z,0.35
2023-05-13T10:46:58.005Z,0.25
2023-05-13T10:47:58.266Z,0.23
2023-05-13T10:48:58.094Z,0.28
2023-05-13T10:49:58.141Z,0.55
2023-05-13T10:50:58.200Z,0.45
2023-05-13T10:51:58.231Z,0.41
2023-05-13T10:52:58.272Z,0.32
2023-05-13T10:53:58.315Z,0.20
2023-05-13T10:54:58.376Z,0.42
2023-05-13T10:55:58.413Z,0.27
2023-05-13T10:56:58.451Z,0.31
2023-05-13T10:57:58.498Z,0.37
2023-05-13T10:58:58.581Z,0.21
2023-05-13T10:59:58.593Z,0.20
2023-05-13T11:00:58.646Z,0.19
2023-05-13T11:01:58.823Z,0.20
2023-05-13T11:02:58.828Z,0.29
2023-05-13T11:03:59.040Z,0.14
2023-05-13T11:04:58.857Z,0.31
2023-05-13T11:05:58.897Z,0.27
2023-05-13T11:06:58.962Z,0.25
2023-05-13T11:07:58.990Z,0.14
2023-05-13T11:08:59.060Z,0.37
2023-05-13T11:09:59.109Z,0.21
2023-05-13T11:10:59.161Z,0.32
2023-05-13T11:11:59.186Z,0.13
2023-05-13T11:12:59.231Z,0.15
2023-05-13T11:13:59.279Z,0.17
2023-05-13T11:14:59.367Z,0.30
2023-05-13T11:15:59.461Z,0.28
2023-05-13T11:16:59.440Z,0.30
2023-05-13T11:17:59.535Z,0.29
2023-05-13T11:18:59.565Z,0.08
2023-05-13T11:19:59.605Z,0.22
2023-05-13T11:20:59.633Z,0.16
2023-05-13T11:21:59.681Z,0.20
2023-05-13T11:22:59.740Z,0.15
2023-05-13T11:23:59.809Z,0.30
2023-05-13T11:24:59.831Z,0.18
2023-05-13T11:25:59.907Z,0.20
2023-05-13T11:26:59.937Z,0.20
2023-05-13T11:27:59.992Z,0.13
2023-05-13T11:29:00.034Z,0.16
2023-05-13T11:30:00.112Z,0.16
2023-05-13T11:31:00.213Z,0.31
2023-05-13T11:32:01.028Z,0.20
2023-05-13T11:33:00.273Z,0.21
2023-05-13T11:34:00.273Z,0.15
2023-05-13T11:35:00.328Z,0.27
2023-05-13T11:36:00.363Z,0.19
2023-05-13T11:37:00.409Z,0.10
2023-05-13T11:38:00.700Z,0.16
2023-05-13T11:39:00.472Z,0.14
2023-05-13T11:40:00.500Z,0.21
2023-05-13T11:41:00.538Z,0.12
2023-05-13T11:42:00.567Z,0.22
2023-05-13T11:43:00.621Z,0.29
2023-05-13T11:44:00.640Z,0.26
2023-05-13T11:45:00.678Z,0.11
2023-05-13T11:46:00.720Z,0.20
2023-05-13T11:47:00.745Z,0.15
2023-05-13T11:48:00.811Z,0.11
2023-05-13T11:49:00.809Z,0.16
2023-05-13T11:50:00.818Z,0.08
2023-05-13T11:51:00.868Z,0.23
2023-05-13T11:52:00.890Z,0.11
2023-05-13T11:53:00.934Z,0.16
2023-05-13T11:54:00.933Z,0.20
2023-05-13T11:55:00.953Z,0.16
2023-05-13T11:56:01.000Z,0.16
2023-05-13T11:57:01.006Z,0.26
2023-05-13T11:58:01.063Z,0.21
2023-05-13T11:59:01.086Z,0.16
2023-05-13T12:00:01.134Z,0.10
2023-05-13T12:01:01.152Z,0.21
2023-05-13T12:02:01.258Z,0.14
2023-05-13T12:03:01.312Z,0.10
2023-05-13T12:04:01.235Z,0.08
2023-05-13T12:05:01.367Z,0.15
2023-05-13T12:06:01.298Z,0.17
2023-05-13T12:07:01.324Z,0.14
2023-05-13T12:08:01.372Z,0.07
2023-05-13T12:09:01.426Z,0.07
2023-05-13T12:10:01.486Z,0.10
2023-05-13T12:11:01.439Z,0.07
2023-05-13T12:12:01.473Z,0.11
2023-05-13T12:13:01.473Z,0.16
2023-05-13T12:14:01.527Z,0.13
2023-05-13T12:15:01.546Z,0.15
2023-05-13T12:16:01.605Z,0.10
2023-05-13T12:17:01.610Z,0.24
2023-05-13T12:18:01.650Z,0.06
2023-05-13T12:19:01.723Z,0.10
2023-05-13T12:20:01.685Z,0.12
2023-05-13T12:21:01.712Z,0.09
2023-05-13T12:22:02.567Z,0.03
2023-05-13T12:23:01.740Z,0.11
2023-05-13T12:24:01.782Z,0.09
2023-05-13T12:25:01.812Z,0.13
2023-05-13T12:26:01.810Z,0.13
2023-05-13T12:27:01.836Z,0.08
2023-05-13T12:28:01.861Z,0.05
2023-05-13T12:29:01.865Z,0.13
2023-05-13T12:30:01.896Z,0.14
2023-05-13T12:31:01.959Z,0.11
2023-05-13T12:32:01.966Z,0.12
2023-05-13T12:33:01.979Z,0.11
2023-05-13T12:34:02.006Z,0.05
2023-05-13T12:35:02.070Z,0.04
2023-05-13T12:36:02.047Z,0.05
2023-05-13T12:37:02.107Z,0.22
2023-05-13T12:38:02.058Z,0.09
2023-05-13T12:39:02.069Z,0.21
2023-05-13T12:40:02.108Z,0.07
2023-05-13T12:41:02.140Z,0.06
2023-05-13T12:42:02.120Z,0.03
2023-05-13T12:43:02.163Z,0.14
2023-05-13T12:44:02.185Z,0.10
2023-05-13T12:45:02.205Z,0.13
2023-05-13T12:46:02.227Z,0.16
2023-05-13T12:47:02.305Z,0.14
2023-05-13T12:48:02.274Z,0.18
2023-05-13T12:49:02.288Z,0.25
2023-05-13T12:50:02.321Z,0.13
2023-05-13T12:51:02.514Z,0.14
2023-05-13T12:52:02.338Z,0.13
2023-05-13T12:53:02.400Z,0.14
2023-05-13T12:54:02.420Z,0.04
2023-05-13T12:55:02.419Z,0.21
2023-05-13T12:56:02.474Z,0.10
2023-05-13T12:57:02.470Z,0.20
2023-05-13T12:58:02.499Z,0.13
2023-05-13T12:59:02.524Z,0.02
2023-05-13T13:00:02.597Z,0.07
2023-05-13T13:01:02.616Z,0.13
2023-05-13T13:02:02.572Z,0.21
2023-05-13T13:03:02.675Z,0.11
2023-05-13T13:04:02.748Z,0.17
2023-05-13T13:05:02.639Z,0.17
2023-05-13T13:06:02.677Z,0.07
2023-05-13T13:07:02.694Z,0.09
2023-05-13T13:08:02.710Z,0.11
2023-05-13T13:09:02.725Z,0.15
2023-05-13T13:10:02.759Z,0.12
2023-05-13T13:11:02.799Z,0.15
2023-05-13T13:12:02.798Z,0.10
2023-05-13T13:13:02.835Z,0.08
2023-05-13T13:14:02.844Z,0.09
2023-05-13T13:15:02.848Z,0.04
2023-05-13T13:16:02.967Z,0.07
2023-05-13T13:17:02.877Z,0.20
2023-05-13T13:18:02.974Z,0.14
2023-05-13T13:19:02.927Z,0.06